Time;durP1;ratioP1;P1;durP2;ratioP2;P2;SDS_P1;SDS_P2;PMS_P1;PMS_P2;Temp;Humidity;BMP_temperature;BMP_pressure;BME280_temperature;BME280_humidity;BME280_pressure;Samples;Min_cycle;Max_cycle;Signal;HPM_P1;HPM_P2
2023/12/22 00:01:33;;;;;;;22.65;4.20;;;3.60;99.90;;;;;;5035760;28;20107;-18
2023/12/22 00:03:59;;;;;;;24.33;6.13;;;4.40;99.90;;;;;;5053251;28;20045;-19
2023/12/22 00:06:25;;;;;;;20.70;4.45;;;3.40;99.90;;;;;;5053421;28;20099;-19
2023/12/22 00:08:51;;;;;;;30.33;5.53;;;3.70;99.90;;;;;;5053427;28;20480;-19
2023/12/22 00:11:17;;;;;;;34.05;7.75;;;5.10;99.90;;;;;;5053181;28;20058;-18
2023/12/22 00:13:42;;;;;;;17.83;5.78;;;5.60;99.90;;;;;;5035340;28;20384;-17
2023/12/22 00:16:08;;;;;;;22.00;5.75;;;5.70;99.90;;;;;;5054226;28;20043;-18
2023/12/22 00:18:34;;;;;;;29.10;6.57;;;5.30;99.90;;;;;;5051970;28;20061;-18
2023/12/22 00:21:00;;;;;;;30.67;5.60;;;6.10;99.90;;;;;;5051922;28;20124;-18
2023/12/22 00:23:26;;;;;;;31.48;6.63;;;3.20;99.90;;;;;;5052839;28;20517;-17
2023/12/22 00:25:51;;;;;;;23.67;6.25;;;5.50;99.90;;;;;;5053007;28;20040;-18
2023/12/22 00:28:17;;;;;;;25.85;5.60;;;3.60;99.90;;;;;;5052967;28;20052;-18
2023/12/22 00:30:43;;;;;;;32.80;6.07;;;3.30;99.90;;;;;;5051518;28;20045;-18
2023/12/22 00:33:09;;;;;;;36.53;6.13;;;4.90;99.90;;;;;;5052959;28;20049;-18
2023/12/22 00:35:35;;;;;;;27.20;5.90;;;5.40;99.90;;;;;;5052955;28;20128;-18
2023/12/22 00:38:01;;;;;;;32.38;6.80;;;4.00;99.90;;;;;;5055858;28;20538;-18
2023/12/22 00:40:27;;;;;;;26.23;5.22;;;5.40;99.90;;;;;;5055862;28;20087;-18
2023/12/22 00:42:52;;;;;;;11.95;3.30;;;4.20;99.90;;;;;;5056080;28;20059;-18
2023/12/22 00:45:18;;;;;;;12.30;2.90;;;3.80;99.90;;;;;;5039595;28;20371;-17
2023/12/22 00:47:44;;;;;;;14.15;2.92;;;4.80;99.90;;;;;;5055261;28;20052;-18
2023/12/22 00:50:10;;;;;;;21.67;4.22;;;3.50;99.90;;;;;;5056362;28;20052;-17
2023/12/22 00:52:36;;;;;;;18.00;3.38;;;4.00;99.90;;;;;;5055678;28;20045;-17
2023/12/22 00:55:01;;;;;;;16.30;3.63;;;3.20;99.90;;;;;;5056271;28;20513;-17
2023/12/22 00:57:27;;;;;;;16.90;3.45;;;5.30;99.90;;;;;;5056200;28;20045;-18
2023/12/22 00:59:53;;;;;;;21.23;4.47;;;3.10;99.90;;;;;;5055202;28;20068;-17
2023/12/22 01:02:20;;;;;;;19.67;3.42;;;3.70;99.90;;;;;;5056123;28;20094;-18
2023/12/22 01:04:45;;;;;;;21.92;5.22;;;5.20;99.90;;;;;;5055386;28;20040;-18
2023/12/22 01:07:12;;;;;;;15.75;3.05;;;5.20;99.90;;;;;;5054866;28;20220;-18
2023/12/22 01:09:38;;;;;;;25.10;4.35;;;5.50;99.90;;;;;;5054536;28;20434;-18
2023/12/22 01:12:06;;;;;;;23.85;4.00;;;3.90;99.90;;;;;;5054981;28;20045;-18
2023/12/22 01:14:32;;;;;;;19.50;5.53;;;3.50;99.90;;;;;;5056438;28;20442;-18
2023/12/22 01:16:59;;;;;;;23.63;4.88;;;3.60;99.90;;;;;;5055874;28;20075;-18
2023/12/22 01:19:25;;;;;;;22.88;4.82;;;5.90;99.90;;;;;;5039366;28;20132;-18
2023/12/22 01:21:51;;;;;;;28.63;5.85;;;4.10;99.90;;;;;;5056642;28;20128;-18
2023/12/22 01:24:17;;;;;;;23.63;5.65;;;3.40;99.90;;;;;;5055815;28;20061;-18
2023/12/22 01:26:43;;;;;;;15.13;3.83;;;3.50;99.90;;;;;;5054386;28;20494;-18
2023/12/22 01:29:08;;;;;;;18.60;4.07;;;3.70;99.90;;;;;;5055569;28;20131;-18
2023/12/22 01:31:34;;;;;;;39.22;7.18;;;5.90;99.90;;;;;;5055824;28;20049;-16
2023/12/22 01:34:00;;;;;;;33.20;8.18;;;4.00;99.90;;;;;;5055580;28;20045;-16
2023/12/22 01:36:26;;;;;;;33.33;9.25;;;6.10;99.90;;;;;;5055445;28;20495;-16
2023/12/22 01:38:52;;;;;;;26.67;6.65;;;3.90;99.90;;;;;;5055499;28;20178;-16
2023/12/22 01:41:17;;;;;;;32.55;6.65;;;3.60;99.90;;;;;;5056218;28;20049;-17
2023/12/22 01:43:43;;;;;;;34.75;7.88;;;2.70;99.90;;;;;;5054654;28;20471;-18
2023/12/22 01:46:13;;;;;;;34.90;6.47;;;2.90;99.90;;;;;;5055495;28;20123;-18
2023/12/22 01:48:39;;;;;;;34.90;7.88;;;5.70;99.90;;;;;;5055196;28;20053;-18
2023/12/22 01:51:06;;;;;;;51.90;9.48;;;5.50;99.90;;;;;;5056026;28;20059;-17
2023/12/22 01:53:33;;;;;;;43.00;8.52;;;4.80;99.90;;;;;;5055142;28;20053;-17
2023/12/22 01:56:01;;;;;;;44.08;7.15;;;2.10;99.90;;;;;;5055933;28;20037;-17
2023/12/22 01:58:28;;;;;;;39.72;8.02;;;5.00;99.90;;;;;;5053939;28;20041;-18
2023/12/22 02:00:55;;;;;;;30.92;4.75;;;3.70;99.90;;;;;;5054692;28;20372;-18
2023/12/22 02:03:23;;;;;;;20.30;4.25;;;6.00;99.90;;;;;;5054970;28;20106;-18
2023/12/22 02:05:49;;;;;;;40.70;7.65;;;3.30;99.90;;;;;;5053736;28;20041;-18
2023/12/22 02:08:18;;;;;;;27.80;5.57;;;5.30;99.90;;;;;;5054908;28;20132;-18
2023/12/22 02:10:44;;;;;;;34.22;7.03;;;6.20;99.90;;;;;;5054538;28;20104;-18
2023/12/22 02:13:11;;;;;;;38.25;7.22;;;3.90;99.90;;;;;;5055640;28;20041;-17
2023/12/22 02:15:37;;;;;;;28.95;5.88;;;6.50;99.90;;;;;;5054783;28;20147;-17
2023/12/22 02:18:21;;;;;;;25.13;5.50;;;2.60;99.90;;;;;;5037073;28;20392;-18
2023/12/22 02:20:47;;;;;;;29.73;4.20;;;6.20;99.90;;;;;;5054671;28;20048;-17
2023/12/22 02:23:13;;;;;;;23.80;5.53;;;6.10;99.90;;;;;;5053225;28;20486;-18
2023/12/22 02:25:38;;;;;;;30.63;6.10;;;2.40;99.90;;;;;;5054504;28;20075;-17
2023/12/22 02:28:13;;;;;;;24.38;4.25;;;2.90;99.90;;;;;;5054448;28;20041;-18
2023/12/22 02:31:07;;;;;;;20.70;4.30;;;5.30;99.90;;;;;;5054183;28;20048;-17
2023/12/22 02:33:36;;;;;;;33.35;5.63;;;6.00;99.90;;;;;;5055251;28;20056;-17
2023/12/22 02:36:08;;;;;;;21.85;4.55;;;6.00;99.90;;;;;;5053223;28;20056;-18
2023/12/22 02:38:35;;;;;;;34.45;6.40;;;6.10;99.90;;;;;;5054385;28;20052;-17
2023/12/22 02:41:02;;;;;;;30.02;5.28;;;3.70;99.90;;;;;;5054800;28;20145;-17
2023/12/22 02:43:28;;;;;;;30.10;4.68;;;6.10;99.90;;;;;;5054191;28;20045;-17
2023/12/22 02:45:54;;;;;;;27.13;4.90;;;6.20;99.90;;;;;;5053759;28;20049;-18
2023/12/22 02:48:20;;;;;;;22.60;5.57;;;5.40;99.90;;;;;;5054164;28;20479;-17
2023/12/22 02:50:46;;;;;;;36.03;6.65;;;6.70;99.90;;;;;;5054131;28;20048;-18
2023/12/22 02:53:12;;;;;;;32.13;6.03;;;6.50;99.90;;;;;;5054619;28;20186;-18
2023/12/22 02:55:37;;;;;;;30.77;5.88;;;3.70;99.90;;;;;;5052833;28;20045;-17
2023/12/22 02:58:03;;;;;;;23.10;3.22;;;4.70;99.90;;;;;;5054048;28;20071;-18
2023/12/22 03:00:29;;;;;;;35.63;6.95;;;4.00;99.90;;;;;;5052045;28;20136;-17
2023/12/22 03:02:55;;;;;;;13.52;3.30;;;3.20;99.90;;;;;;5052693;28;20045;-16
2023/12/22 03:05:20;;;;;;;13.05;2.65;;;3.40;99.90;;;;;;5053805;28;20397;-17
2023/12/22 03:07:46;;;;;;;16.85;2.95;;;0.20;99.90;;;;;;5053863;28;20045;-17
2023/12/22 03:10:12;;;;;;;17.92;2.72;;;-1.00;99.90;;;;;;5054316;28;20052;-17
2023/12/22 03:12:38;;;;;;;13.25;2.42;;;6.40;99.90;;;;;;5052538;28;20056;-17
2023/12/22 03:15:07;;;;;;;14.50;2.53;;;-0.50;99.90;;;;;;5054017;28;20040;-17
2023/12/22 03:17:32;;;;;;;21.15;4.05;;;0.50;99.90;;;;;;5053687;28;20045;-17
2023/12/22 03:19:58;;;;;;;27.90;4.82;;;-0.50;99.90;;;;;;5053659;28;20395;-17
2023/12/22 03:22:24;;;;;;;28.70;3.92;;;-0.90;99.90;;;;;;5053615;28;20045;-17
2023/12/22 03:24:50;;;;;;;35.65;5.38;;;4.00;99.90;;;;;;5052165;28;20064;-17
2023/12/22 03:27:17;;;;;;;40.65;6.50;;;0.40;99.90;;;;;;5053480;28;20052;-17
2023/12/22 03:29:44;;;;;;;27.00;4.80;;;5.50;99.90;;;;;;5054101;28;20092;-17
2023/12/22 03:32:10;;;;;;;32.47;6.47;;;4.80;99.90;;;;;;5052562;28;20132;-16
2023/12/22 03:34:36;;;;;;;26.88;5.22;;;1.60;99.90;;;;;;5053510;28;20092;-16
2023/12/22 03:37:01;;;;;;;15.63;3.20;;;7.90;99.90;;;;;;5053501;28;20053;-16
2023/12/22 03:39:27;;;;;;;23.42;2.75;;;2.60;99.90;;;;;;5053465;28;20053;-17
2023/12/22 03:41:53;;;;;;;16.02;2.83;;;7.30;99.90;;;;;;5053431;28;20041;-17
2023/12/22 03:44:18;;;;;;;13.32;2.60;;;3.80;99.90;;;;;;5053436;28;20045;-17
2023/12/22 03:46:44;;;;;;;17.95;2.67;;;7.30;99.90;;;;;;5052097;28;20045;-17
2023/12/22 03:49:10;;;;;;;12.70;2.40;;;7.40;99.90;;;;;;5053949;28;20041;-17
2023/12/22 03:51:37;;;;;;;21.85;4.57;;;1.20;99.90;;;;;;5053019;28;20045;-17
2023/12/22 03:54:03;;;;;;;22.88;3.90;;;0.70;99.90;;;;;;5051932;28;20510;-17
2023/12/22 03:56:29;;;;;;;24.92;4.93;;;5.00;99.90;;;;;;5053343;28;20037;-17
2023/12/22 03:58:55;;;;;;;26.42;5.78;;;7.10;99.90;;;;;;5053347;28;20049;-17
2023/12/22 04:01:21;;;;;;;29.50;5.65;;;7.90;99.90;;;;;;5052113;28;20041;-17
2023/12/22 04:03:47;;;;;;;29.08;6.10;;;2.30;99.90;;;;;;5053122;28;20376;-17
2023/12/22 04:06:13;;;;;;;35.65;6.53;;;7.30;99.90;;;;;;5053134;28;20045;-17
2023/12/22 04:08:39;;;;;;;25.00;5.15;;;7.80;99.90;;;;;;5035698;28;20056;-17
2023/12/22 04:11:05;;;;;;;42.03;7.10;;;7.70;99.90;;;;;;5037286;28;20057;-17
2023/12/22 04:13:31;;;;;;;34.30;6.45;;;2.80;99.90;;;;;;5057362;28;20045;-17
2023/12/22 04:15:56;;;;;;;42.90;7.55;;;6.40;99.90;;;;;;5057001;28;20479;-17
2023/12/22 04:18:22;;;;;;;34.35;7.05;;;6.50;99.90;;;;;;5057019;28;20044;-17
2023/12/22 04:20:51;;;;;;;26.40;5.72;;;6.40;99.90;;;;;;5055791;28;20506;-17
2023/12/22 04:23:19;;;;;;;31.35;5.93;;;4.20;99.90;;;;;;5056296;28;20087;-17
2023/12/22 04:25:45;;;;;;;28.42;6.30;;;4.30;99.90;;;;;;5056816;28;20041;-17
2023/12/22 04:28:11;;;;;;;27.23;5.55;;;4.50;99.90;;;;;;5056796;28;20098;-17
2023/12/22 04:30:36;;;;;;;24.67;5.50;;;6.20;99.90;;;;;;5056431;28;20502;-17
2023/12/22 04:33:02;;;;;;;27.27;5.97;;;5.60;99.90;;;;;;5056562;28;20049;-17
2023/12/22 04:35:28;;;;;;;22.48;5.97;;;4.80;99.90;;;;;;5056687;28;20048;-17
2023/12/22 04:37:54;;;;;;;37.17;6.72;;;5.20;99.90;;;;;;5055462;28;20489;-17
2023/12/22 04:40:20;;;;;;;26.92;6.10;;;6.00;99.90;;;;;;5055369;28;20037;-18
2023/12/22 04:42:46;;;;;;;43.65;8.88;;;6.10;99.90;;;;;;5057347;28;20138;-18
2023/12/22 04:45:12;;;;;;;27.77;6.88;;;4.90;99.90;;;;;;5056374;28;20045;-17
2023/12/22 04:47:38;;;;;;;30.25;6.80;;;5.70;99.90;;;;;;5055257;28;20052;-18
2023/12/22 04:50:04;;;;;;;30.33;5.63;;;5.70;99.90;;;;;;5055203;28;20154;-17
2023/12/22 04:52:30;;;;;;;23.90;5.10;;;5.40;99.90;;;;;;5056349;28;20041;-18
2023/12/22 04:54:56;;;;;;;22.65;5.57;;;5.60;99.90;;;;;;5056282;28;20041;-18
2023/12/22 04:57:22;;;;;;;19.60;4.15;;;5.60;99.90;;;;;;5055059;28;20056;-18
2023/12/22 04:59:48;;;;;;;20.80;4.97;;;5.50;99.90;;;;;;5056227;28;20103;-18
2023/12/22 05:02:13;;;;;;;21.70;4.50;;;5.50;99.90;;;;;;5056179;28;20045;-18
2023/12/22 05:04:39;;;;;;;31.00;5.55;;;5.40;99.90;;;;;;5056572;28;20103;-18
2023/12/22 05:07:06;;;;;;;27.25;5.35;;;5.50;99.90;;;;;;5056058;28;20072;-18
2023/12/22 05:09:36;;;;;;;36.42;6.63;;;5.60;99.90;;;;;;5056022;28;20124;-18
2023/12/22 05:12:02;;;;;;;30.40;5.70;;;5.70;99.90;;;;;;5055974;28;20384;-18
2023/12/22 05:14:27;;;;;;;25.10;5.50;;;5.60;99.90;;;;;;5055965;28;20175;-18
2023/12/22 05:16:55;;;;;;;22.10;4.72;;;5.80;99.90;;;;;;5056158;28;20463;-18
2023/12/22 05:19:21;;;;;;;24.40;5.00;;;5.80;99.90;;;;;;5055889;28;20580;-18
2023/12/22 05:21:49;;;;;;;21.65;5.10;;;5.80;99.90;;;;;;5055471;28;20407;-18
2023/12/22 05:24:15;;;;;;;24.42;5.70;;;5.80;99.90;;;;;;5053761;28;20522;-18
2023/12/22 05:26:41;;;;;;;24.70;5.65;;;5.80;99.90;;;;;;5055668;28;20045;-18
2023/12/22 05:29:08;;;;;;;25.52;5.40;;;5.70;99.90;;;;;;5054283;28;20044;-18
2023/12/22 05:31:34;;;;;;;22.63;6.03;;;5.80;99.90;;;;;;5054654;28;20480;-18
2023/12/22 05:34:00;;;;;;;32.35;6.45;;;6.00;99.90;;;;;;5056141;28;20049;-18
2023/12/22 05:36:31;;;;;;;23.10;5.30;;;5.80;99.90;;;;;;5055517;28;20041;-18
2023/12/22 05:38:56;;;;;;;28.58;4.57;;;5.80;99.90;;;;;;5054846;28;20127;-18
2023/12/22 05:41:22;;;;;;;27.98;5.78;;;5.70;99.90;;;;;;5055422;28;20420;-18
2023/12/22 05:43:48;;;;;;;25.45;4.63;;;5.80;99.90;;;;;;5055375;28;20053;-18
2023/12/22 05:46:14;;;;;;;29.25;4.63;;;5.80;99.90;;;;;;5055241;28;20045;-19
2023/12/22 05:48:40;;;;;;;19.75;5.43;;;5.80;99.90;;;;;;5055858;28;20174;-19
2023/12/22 05:51:09;;;;;;;25.35;5.47;;;5.80;99.90;;;;;;5054178;28;20045;-19
2023/12/22 05:53:35;;;;;;;23.92;5.25;;;5.90;99.90;;;;;;5054925;28;20498;-19
2023/12/22 05:56:01;;;;;;;27.58;5.80;;;5.80;99.90;;;;;;5054287;28;20047;-19
2023/12/22 05:58:27;;;;;;;27.75;6.03;;;5.90;99.90;;;;;;5055673;28;20111;-19
2023/12/22 06:00:52;;;;;;;29.08;3.90;;;6.00;99.90;;;;;;5055357;28;20107;-19
2023/12/22 06:03:18;;;;;;;20.63;3.20;;;5.90;99.90;;;;;;5053750;28;20045;-19
2023/12/22 06:05:44;;;;;;;20.55;2.72;;;5.80;99.90;;;;;;5054916;28;20124;-20
2023/12/22 06:08:10;;;;;;;20.67;3.35;;;5.80;99.90;;;;;;5054349;28;20080;-19
2023/12/22 06:10:36;;;;;;;35.40;5.80;;;5.70;99.90;;;;;;5053937;28;20045;-19
2023/12/22 06:13:03;;;;;;;21.77;4.30;;;5.70;99.90;;;;;;5054817;28;20092;-19
2023/12/22 06:15:30;;;;;;;23.08;3.55;;;5.90;99.90;;;;;;5055324;28;20041;-19
2023/12/22 06:17:55;;;;;;;31.00;5.20;;;5.90;99.90;;;;;;5055204;28;20387;-20
2023/12/22 06:20:21;;;;;;;23.77;3.55;;;5.80;99.90;;;;;;5054231;28;20056;-19
2023/12/22 06:22:47;;;;;;;26.17;4.63;;;5.80;99.90;;;;;;5054495;28;20411;-20
2023/12/22 06:25:13;;;;;;;24.75;4.50;;;5.80;99.90;;;;;;5036610;28;20552;-20
2023/12/22 06:27:39;;;;;;;22.13;5.07;;;5.90;99.90;;;;;;5053279;28;20139;-19
2023/12/22 06:30:06;;;;;;;25.88;3.75;;;5.80;99.90;;;;;;5054502;28;20092;-20
2023/12/22 06:32:32;;;;;;;18.75;3.25;;;5.90;99.90;;;;;;5053869;28;20045;-20
2023/12/22 06:35:00;;;;;;;18.77;4.30;;;5.80;99.90;;;;;;5053364;28;20045;-20
2023/12/22 06:37:26;;;;;;;25.38;4.50;;;5.90;99.90;;;;;;5053391;28;20072;-20
2023/12/22 06:39:52;;;;;;;14.50;3.60;;;5.90;99.90;;;;;;5055172;28;20219;-20
2023/12/22 06:42:17;;;;;;;29.27;4.55;;;5.80;99.90;;;;;;5054242;28;20106;-20
2023/12/22 06:44:43;;;;;;;25.67;5.72;;;5.80;99.90;;;;;;5036992;28;20080;-20
2023/12/22 06:47:09;;;;;;;22.05;3.42;;;5.90;99.90;;;;;;5054752;28;20059;-20
2023/12/22 06:49:35;;;;;;;25.42;4.78;;;5.80;99.90;;;;;;5054183;28;20048;-20
2023/12/22 06:52:01;;;;;;;16.77;3.15;;;5.90;99.90;;;;;;5036613;28;20095;-20
2023/12/22 06:54:30;;;;;;;21.88;3.95;;;5.90;99.90;;;;;;5054056;28;20053;-20
2023/12/22 06:56:56;;;;;;;20.80;3.00;;;5.80;99.90;;;;;;5053992;28;20041;-20
2023/12/22 06:59:21;;;;;;;24.73;4.07;;;5.90;99.90;;;;;;5054012;28;20102;-21
2023/12/22 07:01:47;;;;;;;14.63;2.97;;;5.80;99.90;;;;;;5053947;28;20049;-21
2023/12/22 07:04:13;;;;;;;17.35;4.00;;;5.70;99.90;;;;;;5053947;28;20057;-21
2023/12/22 07:06:38;;;;;;;23.45;3.17;;;5.70;99.90;;;;;;5053491;28;20511;-21
2023/12/22 07:09:19;;;;;;;19.27;3.30;;;5.70;99.90;;;;;;5053465;28;20056;-21
2023/12/22 07:11:52;;;;;;;16.90;2.33;;;5.70;99.90;;;;;;5053454;28;20403;-21
2023/12/22 07:14:21;;;;;;;20.50;3.67;;;5.70;99.90;;;;;;5054233;28;20045;-21
2023/12/22 07:16:46;;;;;;;17.00;3.17;;;5.80;99.90;;;;;;5053703;28;20103;-21
2023/12/22 07:19:13;;;;;;;23.10;3.33;;;5.80;99.90;;;;;;5054277;28;20487;-21
2023/12/22 07:21:39;;;;;;;28.15;3.45;;;5.90;99.90;;;;;;5053599;28;20076;-21
2023/12/22 07:24:05;;;;;;;18.73;4.18;;;5.90;99.90;;;;;;5035797;28;20495;-21
2023/12/22 07:26:31;;;;;;;20.75;4.00;;;5.90;99.90;;;;;;5054118;28;20135;-21
2023/12/22 07:28:58;;;;;;;22.00;3.30;;;5.80;99.90;;;;;;5053474;28;20128;-21
2023/12/22 07:31:24;;;;;;;16.33;3.40;;;5.80;99.90;;;;;;5053538;28;20044;-21
2023/12/22 07:33:50;;;;;;;13.10;2.53;;;5.90;99.90;;;;;;5053516;28;20044;-21
2023/12/22 07:36:16;;;;;;;16.05;2.58;;;5.90;99.90;;;;;;5053458;28;20424;-21
2023/12/22 07:38:41;;;;;;;15.13;3.13;;;5.90;99.90;;;;;;5054272;28;20052;-21
2023/12/22 07:41:08;;;;;;;8.80;1.95;;;6.00;99.90;;;;;;5053503;28;20045;-21
2023/12/22 07:43:33;;;;;;;15.55;2.78;;;5.90;99.90;;;;;;5036462;28;20053;-21
2023/12/22 07:46:05;;;;;;;20.42;3.15;;;5.90;99.90;;;;;;5055149;28;20068;-21
2023/12/22 07:48:31;;;;;;;11.85;1.63;;;6.00;99.90;;;;;;5057533;28;20103;-22
2023/12/22 07:50:56;;;;;;;15.57;2.00;;;6.00;99.90;;;;;;5058035;28;20044;-21
2023/12/22 07:53:22;;;;;;;13.10;2.85;;;6.10;99.90;;;;;;5056477;28;20067;-21
2023/12/22 07:55:48;;;;;;;13.07;2.50;;;6.10;99.90;;;;;;5057386;28;20041;-21
2023/12/22 07:58:14;;;;;;;13.98;1.92;;;6.00;99.90;;;;;;5057940;28;20052;-22
2023/12/22 08:00:39;;;;;;;10.77;1.83;;;6.00;99.90;;;;;;5056315;28;20045;-21
2023/12/22 08:03:05;;;;;;;6.88;1.63;;;6.00;99.90;;;;;;5057090;28;20053;-22
2023/12/22 08:05:31;;;;;;;7.70;1.77;;;6.00;99.90;;;;;;5057556;28;20367;-21
2023/12/22 08:07:57;;;;;;;15.40;2.53;;;6.00;99.90;;;;;;5056972;28;20049;-21
2023/12/22 08:10:23;;;;;;;14.65;2.03;;;6.00;99.90;;;;;;5056049;28;20053;-22
2023/12/22 08:12:49;;;;;;;16.48;3.28;;;6.00;99.90;;;;;;5056945;28;20343;-22
2023/12/22 08:15:15;;;;;;;17.60;3.08;;;6.00;99.90;;;;;;5055440;28;20041;-22
2023/12/22 08:17:48;;;;;;;18.85;4.22;;;5.80;99.90;;;;;;5056900;28;20049;-22
2023/12/22 08:20:18;;;;;;;;;;;5.80;99.90;;;;;;5056209;28;20151;-22
2023/12/22 08:22:46;;;;;;;13.95;2.72;;;6.00;99.90;;;;;;5057270;28;20344;-22
2023/12/22 08:25:13;;;;;;;18.45;3.50;;;6.00;99.90;;;;;;5055072;28;20198;-22
2023/12/22 08:27:38;;;;;;;9.65;2.30;;;6.00;99.90;;;;;;5056634;28;20036;-22
2023/12/22 08:30:05;;;;;;;17.77;4.80;;;6.00;99.90;;;;;;5056836;28;20072;-22
2023/12/22 08:32:31;;;;;;;15.75;2.72;;;5.90;99.90;;;;;;5056587;28;20048;-22
2023/12/22 08:34:56;;;;;;;15.45;2.85;;;6.00;99.90;;;;;;5055635;28;20049;-22
2023/12/22 08:37:22;;;;;;;22.95;3.22;;;5.90;99.90;;;;;;5056717;28;20049;-22
2023/12/22 08:39:51;;;;;;;19.80;3.75;;;5.20;99.90;;;;;;5056501;28;20055;-22
2023/12/22 08:42:17;;;;;;;15.38;2.53;;;5.60;99.90;;;;;;5056404;28;20095;-22
2023/12/22 08:44:43;;;;;;;26.13;3.08;;;5.70;99.90;;;;;;5055045;28;20053;-22
2023/12/22 08:47:09;;;;;;;18.45;3.08;;;6.30;99.90;;;;;;5055542;28;20049;-22
2023/12/22 08:49:35;;;;;;;9.93;2.58;;;6.10;99.90;;;;;;5055052;28;20422;-22
2023/12/22 08:52:03;;;;;;;14.35;1.92;;;6.00;99.90;;;;;;5056164;28;20159;-22
2023/12/22 08:54:30;;;;;;;17.45;2.30;;;5.50;99.90;;;;;;5056096;28;20056;-22
2023/12/22 08:56:55;;;;;;;10.77;1.98;;;5.30;99.90;;;;;;5054109;28;20041;-22
2023/12/22 08:59:21;;;;;;;19.42;2.97;;;5.20;99.90;;;;;;5055936;28;20495;-22
2023/12/22 09:01:47;;;;;;;12.32;1.98;;;5.50;99.90;;;;;;5056481;28;20498;-22
2023/12/22 09:04:13;;;;;;;12.35;2.47;;;5.10;99.90;;;;;;5055913;28;20103;-22
2023/12/22 09:06:39;;;;;;;18.20;3.78;;;5.30;99.90;;;;;;5056374;28;20041;-22
2023/12/22 09:09:06;;;;;;;20.23;4.45;;;5.10;99.90;;;;;;5056705;28;20082;-22
2023/12/22 09:11:32;;;;;;;12.32;1.80;;;5.60;99.90;;;;;;5055826;28;20444;-22
2023/12/22 09:13:58;;;;;;;19.98;2.30;;;5.80;99.90;;;;;;5055410;28;20522;-22
2023/12/22 09:16:26;;;;;;;18.00;2.05;;;5.70;99.90;;;;;;5021371;28;20037;-22
2023/12/22 09:18:53;;;;;;;13.48;2.28;;;5.90;99.90;;;;;;5055650;28;20064;-22
2023/12/22 09:21:19;;;;;;;10.80;2.28;;;5.80;99.90;;;;;;5055350;28;20451;-22
2023/12/22 09:23:49;;;;;;;13.02;3.33;;;6.00;99.90;;;;;;5037567;28;20099;-23
2023/12/22 09:26:16;;;;;;;18.02;2.35;;;6.00;99.90;;;;;;5055511;28;20045;-22
2023/12/22 09:28:42;;;;;;;14.20;2.58;;;6.00;99.90;;;;;;5055559;28;20110;-22
2023/12/22 09:31:09;;;;;;;11.18;2.38;;;6.10;99.90;;;;;;5054470;28;20391;-22
2023/12/22 09:33:35;;;;;;;14.43;1.98;;;6.00;99.90;;;;;;5054678;28;20364;-22
2023/12/22 09:36:00;;;;;;;7.57;1.90;;;6.10;99.90;;;;;;5037490;28;20075;-23
2023/12/22 09:38:27;;;;;;;12.52;2.35;;;6.00;99.90;;;;;;5055855;28;20131;-22
2023/12/22 09:40:54;;;;;;;12.57;1.77;;;6.10;99.90;;;;;;5055319;28;20060;-23
2023/12/22 09:43:20;;;;;;;19.70;1.98;;;6.30;99.90;;;;;;5054570;28;20048;-22
2023/12/22 09:45:46;;;;;;;14.65;1.98;;;6.30;99.90;;;;;;5053998;28;20475;-23
2023/12/22 09:48:17;;;;;;;14.98;2.80;;;6.30;99.90;;;;;;5037537;28;20060;-23
2023/12/22 09:50:46;;;;;;;16.30;2.35;;;6.30;99.90;;;;;;5055511;28;20075;-23
2023/12/22 09:53:13;;;;;;;10.93;2.22;;;6.30;99.90;;;;;;5053706;28;20041;-23
2023/12/22 09:55:44;;;;;;;8.82;1.35;;;6.30;99.90;;;;;;5055120;28;20098;-23
2023/12/22 09:58:10;;;;;;;7.72;1.75;;;6.40;99.90;;;;;;5055031;28;20432;-23
2023/12/22 10:00:38;;;;;;;11.18;1.98;;;6.50;99.90;;;;;;5054505;28;20084;-23
2023/12/22 10:03:07;;;;;;;9.20;1.98;;;6.40;99.90;;;;;;5054867;28;20053;-23
2023/12/22 10:05:33;;;;;;;15.15;1.88;;;6.50;99.90;;;;;;5053704;28;20049;-23
2023/12/22 10:08:01;;;;;;;12.77;1.70;;;6.70;99.90;;;;;;5054929;28;20049;-23
2023/12/22 10:10:33;;;;;;;13.55;2.33;;;6.50;99.90;;;;;;5054324;28;20499;-23
2023/12/22 10:13:04;;;;;;;13.02;2.65;;;6.60;99.90;;;;;;5054399;28;20442;-23
2023/12/22 10:15:32;;;;;;;12.75;2.00;;;6.50;99.90;;;;;;5054650;28;20095;-23
2023/12/22 10:17:58;;;;;;;12.27;2.20;;;6.40;99.90;;;;;;5037260;28;20051;-23
2023/12/22 10:20:24;;;;;;;14.90;2.28;;;6.40;99.90;;;;;;5052330;28;20112;-23
2023/12/22 10:22:50;;;;;;;13.10;1.92;;;6.40;99.90;;;;;;5057505;28;20041;-23
2023/12/22 10:25:20;;;;;;;14.93;1.88;;;6.40;99.90;;;;;;5058627;28;20056;-23
2023/12/22 10:27:48;;;;;;;12.05;1.88;;;6.30;99.90;;;;;;5054358;28;20049;-23
2023/12/22 10:30:15;;;;;;;15.50;3.35;;;6.30;99.90;;;;;;5059827;28;20120;-23
2023/12/22 10:32:44;;;;;;;15.55;2.20;;;6.50;99.90;;;;;;5054773;28;20045;-23
2023/12/22 10:35:10;;;;;;;18.52;2.33;;;6.50;99.90;;;;;;5058386;28;20056;-23
2023/12/22 10:37:36;;;;;;;18.15;3.42;;;6.60;99.90;;;;;;5054408;28;20479;-23
2023/12/22 10:40:05;;;;;;;18.08;2.58;;;6.70;99.90;;;;;;5053265;28;20090;-23
2023/12/22 10:42:34;;;;;;;20.17;2.28;;;6.40;99.90;;;;;;5052936;28;20052;-23
2023/12/22 10:45:01;;;;;;;24.50;3.58;;;6.80;99.90;;;;;;5057127;28;20067;-24
2023/12/22 10:47:29;;;;;;;17.33;2.33;;;6.70;99.90;;;;;;5054206;28;20044;-23
2023/12/22 10:49:54;;;;;;;9.18;2.28;;;6.70;99.90;;;;;;5056539;28;20044;-24
2023/12/22 10:52:20;;;;;;;17.98;3.05;;;6.70;99.90;;;;;;5065549;28;20051;-23
2023/12/22 10:54:48;;;;;;;17.70;2.35;;;6.90;99.90;;;;;;5054928;28;20056;-24
2023/12/22 10:57:17;;;;;;;16.45;3.25;;;6.80;99.90;;;;;;5053424;28;20081;-23
2023/12/22 10:59:47;;;;;;;15.30;2.75;;;6.70;99.90;;;;;;5052244;28;20049;-23
2023/12/22 11:02:17;;;;;;;18.92;2.78;;;6.70;99.90;;;;;;5035845;28;20147;-24
2023/12/22 11:05:09;;;;;;;14.15;2.50;;;6.90;99.90;;;;;;5053136;28;20064;-23
2023/12/22 11:07:40;;;;;;;19.23;2.40;;;6.90;99.90;;;;;;5053272;28;20430;-24
2023/12/22 11:10:10;;;;;;;20.00;3.63;;;7.10;99.90;;;;;;5053865;28;20547;-24
2023/12/22 11:12:37;;;;;;;21.48;2.97;;;7.10;99.90;;;;;;5055072;28;20075;-23
2023/12/22 11:15:06;;;;;;;15.75;2.38;;;7.00;99.90;;;;;;5055644;28;20052;-24
2023/12/22 11:17:33;;;;;;;20.70;2.78;;;7.20;99.90;;;;;;5057297;28;20044;-24
2023/12/22 11:19:59;;;;;;;14.70;2.72;;;7.20;99.90;;;;;;5059070;28;20095;-24
2023/12/22 11:22:26;;;;;;;16.02;2.15;;;7.10;99.90;;;;;;5061761;28;20105;-24
2023/12/22 11:24:53;;;;;;;17.88;3.22;;;7.10;99.90;;;;;;5070058;28;20059;-24
2023/12/22 11:27:20;;;;;;;15.65;2.75;;;6.90;99.90;;;;;;5053681;28;20391;-24
2023/12/22 11:29:50;;;;;;;14.52;3.08;;;7.20;99.90;;;;;;5054274;28;20041;-24
2023/12/22 11:32:18;;;;;;;17.75;2.75;;;7.10;99.90;;;;;;5053313;28;20045;-24
2023/12/22 11:34:47;;;;;;;9.52;2.47;;;6.90;99.90;;;;;;5057236;28;20490;-24
2023/12/22 11:37:15;;;;;;;14.07;3.25;;;6.90;99.90;;;;;;5062356;28;20052;-24
2023/12/22 11:39:47;;;;;;;13.57;1.85;;;6.90;99.90;;;;;;5064489;28;20049;-24
2023/12/22 11:42:26;;;;;;;12.43;1.60;;;7.00;99.90;;;;;;5054503;28;20564;-24
2023/12/22 11:44:55;;;;;;;17.02;2.70;;;7.10;99.90;;;;;;5053642;28;20063;-24
2023/12/22 11:47:25;;;;;;;18.40;2.25;;;7.10;99.90;;;;;;5059864;28;20044;-24
2023/12/22 11:49:51;;;;;;;13.25;2.92;;;7.10;99.90;;;;;;5055996;28;20087;-25
2023/12/22 11:52:18;;;;;;;14.25;1.90;;;6.80;99.90;;;;;;5059780;28;20463;-24
2023/12/22 11:54:49;;;;;;;15.43;2.03;;;6.90;99.90;;;;;;5059668;28;20047;-24
2023/12/22 11:57:27;;;;;;;23.88;2.83;;;7.00;99.90;;;;;;5056914;28;20045;-24
2023/12/22 11:59:55;;;;;;;6.43;1.55;;;7.00;99.90;;;;;;5055095;28;20061;-24
2023/12/22 12:02:21;;;;;;;16.42;2.10;;;6.80;99.90;;;;;;5066300;28;20083;-24
2023/12/22 12:05:01;;;;;;;17.23;1.90;;;6.90;99.90;;;;;;5071813;28;20076;-24
2023/12/22 12:07:46;;;;;;;21.48;3.97;;;7.10;99.90;;;;;;5061548;28;20120;-23
2023/12/22 12:10:14;;;;;;;16.50;2.63;;;7.10;99.90;;;;;;5060873;28;20102;-23
2023/12/22 12:12:40;;;;;;;11.82;2.33;;;6.90;99.90;;;;;;5053943;28;20072;-23
2023/12/22 12:15:13;;;;;;;13.75;2.08;;;7.10;99.90;;;;;;5052631;28;20126;-23
2023/12/22 12:17:41;;;;;;;15.02;2.17;;;6.90;99.90;;;;;;5056660;28;20495;-23
2023/12/22 12:20:09;;;;;;;14.98;2.30;;;6.90;99.90;;;;;;5057544;28;20052;-23
2023/12/22 12:22:38;;;;;;;10.63;1.52;;;7.00;99.90;;;;;;5053218;28;20120;-23
2023/12/22 12:25:08;;;;;;;11.85;2.40;;;7.00;99.90;;;;;;5036184;28;20157;-23
2023/12/22 12:27:36;;;;;;;9.80;2.53;;;6.90;99.90;;;;;;5053606;28;20056;-23
2023/12/22 12:30:12;;;;;;;13.70;2.08;;;7.00;99.90;;;;;;5052913;28;20118;-23
2023/12/22 12:32:38;;;;;;;10.82;2.83;;;6.90;99.90;;;;;;5056001;28;20048;-23
2023/12/22 12:35:05;;;;;;;10.82;2.08;;;6.90;99.90;;;;;;5056536;28;20056;-23
2023/12/22 12:37:32;;;;;;;9.23;1.65;;;7.00;99.90;;;;;;5056393;28;20538;-23
2023/12/22 12:40:03;;;;;;;16.48;2.08;;;6.90;99.90;;;;;;5056241;28;20045;-23
2023/12/22 12:42:31;;;;;;;50.05;3.72;;;7.00;99.90;;;;;;5056950;28;20091;-23
2023/12/22 12:44:56;;;;;;;11.30;2.28;;;6.90;99.90;;;;;;5055158;28;20544;-23
2023/12/22 12:47:23;;;;;;;22.15;2.90;;;7.00;99.90;;;;;;5056040;28;20045;-23